Portada
METAR-TAF:

METAR-TAF

Aeropuertos :

Aeropuerto Internacional de Riga

Riga, Letonia

latitud: 56-55N, longitud: 023-58E, altitud: 10 m

Observación

El informe se hizo hace 32 minutos, a las 00:20 UTC
Viento 10 kt del noreste
Temperatura 2°C
Humedad 87%
Presión 1032 hPa
Visibilidad 10 km o más
Escasas nubes a una altura de 1600 ft
Cielo cubierto a una altura de 3600 ft

METAR: EVRA 190020Z 04010KT 9999 FEW016 OVC036 02/00 Q1032 R36/090095 NOSIG

Hora: 02:52 (00:52 UTC)

Pronóstico

El informe se hizo hace 1 hora y 52 minutos, a las 23:00 UTC
Pronóstico válido del 19 a las 00 UTC al 19 a las 24 UTC
Viento 10 kt del norte
Visibilidad 10 km o más
Cielo nuboso a una altura de 2500 ft
Evolucionando progresivamente
del 19 a las 03 UTC al 19 a las 05 UTC
Viento 7 kt del este-noreste
Temporalmente
del 19 a las 03 UTC al 19 a las 08 UTC
Cielo nuboso a una altura de 1000 ft

TAF: EVRA 182300Z 1900/1924 01010KT 9999 BKN025 BECMG 1903/1905 07007KT TEMPO 1903/1908 BKN010

Observaciones y pronósticos meteorológicos de más de 4000 aeropuertos (mensajes METAR y TAF).

Los puntos amarillos y rojos representan las estaciones disponibles.

Ponga el ratón en el punto deseado para ver el nombre de la estación.

Haga clic para ver las observaciones y los pronósticos meteorológicos.

Para cambiar el mapa : haga clic en los botones verdes con una cruz de color negro para hacer un zoom, en el botón verde con un guión para alejar o en las flechas verdes para mapas adyacentes.


METAR-TAF: